Time;durP1;ratioP1;P1;durP2;ratioP2;P2;SDS_P1;SDS_P2;PMS_P1;PMS_P2;Temp;Humidity;BMP_temperature;BMP_pressure;BME280_temperature;BME280_humidity;BME280_pressure;Samples;Min_cycle;Max_cycle;Signal;HPM_P1;HPM_P2
2023/04/28 00:01:10;;;;;;;;;4.50;3.75;;;;;16.80;53.70;99242.78;5075039;28;46232;-82
2023/04/28 00:03:36;;;;;;;;;3.80;3.80;;;;;16.78;54.66;99243.84;5075026;27;45496;-82
2023/04/28 00:06:02;;;;;;;;;5.75;3.50;;;;;16.74;54.54;99244.06;5074121;28;45524;-82
2023/04/28 00:08:27;;;;;;;;;4.00;4.00;;;;;16.74;54.93;99240.53;5075378;27;45495;-82
2023/04/28 00:10:53;;;;;;;;;4.00;2.75;;;;;16.71;54.67;99236.25;5074024;28;48161;-82
2023/04/28 00:13:18;;;;;;;;;3.25;3.25;;;;;16.73;54.76;99245.00;5075224;27;45487;-82
2023/04/28 00:15:44;;;;;;;;;3.00;3.00;;;;;16.74;54.42;99240.53;5073948;28;45474;-82
2023/04/28 00:18:09;;;;;;;;;4.25;3.75;;;;;16.78;54.81;99242.03;5074856;27;45509;-82
2023/04/28 00:20:34;;;;;;;;;3.00;2.75;;;;;16.80;54.72;99233.94;5074925;28;45434;-82
2023/04/28 00:23:00;;;;;;;;;4.25;4.25;;;;;16.81;54.65;99240.97;5075078;28;45499;-82
2023/04/28 00:25:25;;;;;;;;;3.25;3.00;;;;;16.83;54.98;99239.94;5074001;28;45846;-83
2023/04/28 00:27:51;;;;;;;;;4.00;4.00;;;;;16.88;55.02;99240.50;5074965;27;45364;-82
2023/04/28 00:30:16;;;;;;;;;5.00;5.00;;;;;16.90;54.63;99235.94;5074435;27;45454;-82
2023/04/28 00:32:41;;;;;;;;;5.50;2.75;;;;;16.94;54.66;99234.78;5073948;28;45377;-82
2023/04/28 00:35:07;;;;;;;;;6.00;5.00;;;;;16.97;55.06;99233.72;5074271;27;45398;-82
2023/04/28 00:37:37;;;;;;;;;4.75;4.00;;;;;16.98;54.82;99230.97;5074495;28;45344;-82
2023/04/28 00:40:03;;;;;;;;;2.80;2.80;;;;;17.00;54.87;99236.19;5074628;27;45523;-82
2023/04/28 00:42:29;;;;;;;;;5.50;4.00;;;;;17.01;54.88;99230.78;5069760;28;45951;-82
2023/04/28 00:44:54;;;;;;;;;6.75;5.75;;;;;17.00;55.06;99225.53;5061713;28;45415;-82
2023/04/28 00:47:21;;;;;;;;;10.75;6.25;;;;;17.02;55.39;99229.81;5074265;27;45246;-82
2023/04/28 00:49:48;;;;;;;;;7.50;7.50;;;;;17.02;55.09;99216.50;5060975;28;45420;-82
2023/04/28 00:52:14;;;;;;;;;10.20;7.00;;;;;17.05;55.30;99216.31;5073348;28;45415;-83
2023/04/28 00:54:41;;;;;;;;;6.75;6.25;;;;;17.04;55.24;99214.59;5075362;28;45245;-83
2023/04/28 00:57:08;;;;;;;;;10.00;7.50;;;;;17.09;55.42;99214.31;5078316;27;45338;-83
2023/04/28 00:59:34;;;;;;;;;9.00;8.25;;;;;17.09;55.38;99217.78;5076866;28;47651;-81
2023/04/28 01:02:00;;;;;;;;;7.75;6.50;;;;;17.09;55.50;99219.63;5076788;28;45352;-83
2023/04/28 01:04:27;;;;;;;;;7.00;7.00;;;;;17.10;55.59;99215.97;5078199;27;45368;-83
2023/04/28 01:06:54;;;;;;;;;8.50;6.50;;;;;17.08;56.03;99210.78;5077081;28;45249;-83
2023/04/28 01:09:20;;;;;;;;;9.00;7.50;;;;;17.07;55.81;99218.88;5077551;28;46309;-81
2023/04/28 01:11:46;;;;;;;;;6.40;5.80;;;;;17.08;56.02;99221.44;5076306;28;45843;-83
2023/04/28 01:14:11;;;;;;;;;8.00;7.00;;;;;17.06;56.08;99220.69;5077680;27;45616;-83
2023/04/28 01:16:38;;;;;;;;;7.75;7.75;;;;;17.04;55.87;99219.94;5077554;28;45451;-83
2023/04/28 01:19:06;;;;;;;;;6.75;6.75;;;;;17.03;55.87;99215.56;5077399;28;45462;-83
2023/04/28 01:21:33;;;;;;;;;9.40;8.00;;;;;17.03;56.13;99214.69;5075664;28;45359;-83
2023/04/28 01:23:59;;;;;;;;;10.00;8.25;;;;;16.99;56.36;99214.03;5076887;28;45341;-83
2023/04/28 01:26:24;;;;;;;;;6.75;6.75;;;;;16.95;56.01;99209.84;5077581;27;45583;-83
2023/04/28 01:28:50;;;;;;;;;6.25;5.75;;;;;16.88;56.61;99208.56;5075938;28;45382;-83
2023/04/28 01:31:15;;;;;;;;;6.50;5.50;;;;;16.82;56.68;99218.72;5077179;27;45455;-83
2023/04/28 01:33:41;;;;;;;;;6.00;5.25;;;;;16.74;57.33;99220.09;5077078;28;45475;-83
2023/04/28 01:36:07;;;;;;;;;8.50;7.25;;;;;16.70;57.30;99213.25;5075243;28;46305;-84
2023/04/28 01:38:32;;;;;;;;;4.75;4.75;;;;;16.66;57.35;99217.06;5077298;27;45574;-82
2023/04/28 01:40:58;;;;;;;;;11.00;7.00;;;;;16.62;57.30;99219.97;5076099;27;45451;-83
2023/04/28 01:43:24;;;;;;;;;8.25;4.75;;;;;16.56;57.43;99229.22;5075319;27;45451;-83
2023/04/28 01:45:50;;;;;;;;;2.25;1.25;;;;;16.52;57.99;99230.34;5075205;28;45443;-83
2023/04/28 01:48:15;;;;;;;;;6.00;4.50;;;;;16.46;57.74;99232.53;5076221;28;45967;-83
2023/04/28 01:50:41;;;;;;;;;6.50;5.50;;;;;16.42;57.89;99231.03;5076800;27;45452;-83
2023/04/28 01:53:06;;;;;;;;;7.25;7.00;;;;;16.39;58.28;99232.06;5076878;28;45735;-83
2023/04/28 01:55:31;;;;;;;;;6.50;6.50;;;;;16.36;57.97;99229.59;5077322;28;45400;-83
2023/04/28 01:57:57;;;;;;;;;8.00;6.75;;;;;16.35;58.47;99227.88;5077071;27;46065;-83
2023/04/28 02:00:22;;;;;;;;;8.25;6.50;;;;;16.29;58.85;99233.56;5075907;28;45250;-83
2023/04/28 02:02:48;;;;;;;;;8.00;8.00;;;;;16.22;59.32;99233.09;5075018;28;45299;-84
2023/04/28 02:05:14;;;;;;;;;8.25;7.50;;;;;16.18;59.33;99239.56;5076393;27;45464;-83
2023/04/28 02:07:39;;;;;;;;;6.50;6.50;;;;;16.17;59.51;99237.84;5075259;28;46094;-84
2023/04/28 02:10:05;;;;;;;;;6.25;6.25;;;;;16.14;59.39;99231.84;5077069;28;45340;-84
2023/04/28 02:12:30;;;;;;;;;6.00;6.00;;;;;16.14;59.32;99235.38;5076929;28;45288;-83
2023/04/28 02:14:56;;;;;;;;;6.50;6.25;;;;;16.12;59.33;99234.59;5077201;27;45355;-83
2023/04/28 02:17:21;;;;;;;;;6.75;4.75;;;;;16.11;58.92;99235.53;5088498;27;45924;-84
2023/04/28 02:19:47;;;;;;;;;8.75;7.25;;;;;16.09;58.42;99237.44;5076985;27;45376;-84
2023/04/28 02:22:12;;;;;;;;;5.00;5.00;;;;;16.08;58.44;99240.22;5075858;28;45694;-84
2023/04/28 02:24:37;;;;;;;;;6.25;6.25;;;;;16.08;58.55;99246.41;5075594;28;45503;-84
2023/04/28 02:27:04;;;;;;;;;3.75;3.25;;;;;16.10;58.31;99243.63;5075537;28;46694;-84
2023/04/28 02:29:30;;;;;;;;;7.00;5.75;;;;;16.11;58.41;99237.34;5074944;28;45481;-84
2023/04/28 02:31:56;;;;;;;;;4.75;4.50;;;;;16.08;58.37;99233.09;5076747;28;45513;-82
2023/04/28 02:34:21;;;;;;;;;4.75;4.75;;;;;16.09;58.53;99229.47;5076642;27;45317;-83
2023/04/28 02:36:47;;;;;;;;;8.25;6.50;;;;;16.08;58.63;99238.41;5076616;27;46280;-83
2023/04/28 02:39:12;;;;;;;;;11.75;8.50;;;;;16.08;59.10;99233.09;5075088;28;45330;-83
2023/04/28 02:41:38;;;;;;;;;7.25;7.00;;;;;16.05;58.84;99233.28;5076996;27;45539;-83
2023/04/28 02:44:03;;;;;;;;;7.00;6.00;;;;;16.03;59.17;99235.16;5076570;28;45393;-83
2023/04/28 02:46:29;;;;;;;;;6.00;5.75;;;;;16.03;59.38;99227.19;5075198;28;47203;-83
2023/04/28 02:48:55;;;;;;;;;6.00;6.00;;;;;15.99;59.11;99223.84;5074834;28;45278;-82
2023/04/28 02:51:20;;;;;;;;;6.50;5.00;;;;;15.95;58.91;99216.16;5076419;28;45380;-83
2023/04/28 02:53:46;;;;;;;;;5.00;5.00;;;;;15.93;58.95;99223.34;5074973;28;45256;-83
2023/04/28 02:56:11;;;;;;;;;6.25;5.00;;;;;15.90;59.36;99232.41;5076681;27;46209;-83
2023/04/28 02:58:36;;;;;;;;;6.00;5.25;;;;;15.88;59.38;99230.78;5076304;28;45231;-83
2023/04/28 03:01:02;;;;;;;;;6.50;4.00;;;;;15.85;59.40;99238.94;5076793;27;45855;-83
2023/04/28 03:03:27;;;;;;;;;3.75;3.75;;;;;15.80;60.32;99238.34;5076031;27;45315;-83
2023/04/28 03:05:52;;;;;;;;;7.00;6.00;;;;;15.72;59.52;99243.28;5077599;27;46288;-83
2023/04/28 03:08:19;;;;;;;;;7.00;6.00;;;;;15.61;60.08;99236.75;5075848;28;45438;-83
2023/04/28 03:10:45;;;;;;;;;6.00;6.00;;;;;15.46;59.59;99242.94;5076249;27;45434;-83
2023/04/28 03:13:11;;;;;;;;;5.50;4.75;;;;;15.35;60.03;99243.56;5076370;28;45641;-84
2023/04/28 03:15:37;;;;;;;;;5.00;5.00;;;;;15.26;59.80;99232.59;5074562;28;48126;-84
2023/04/28 03:18:02;;;;;;;;;6.00;6.00;;;;;15.25;60.55;99228.25;5075045;28;45223;-84
2023/04/28 03:20:28;;;;;;;;;6.00;6.00;;;;;15.25;61.18;99233.53;5074998;28;45438;-84
2023/04/28 03:22:53;;;;;;;;;6.75;6.75;;;;;15.24;61.09;99235.38;5088439;27;45227;-84
2023/04/28 03:25:19;;;;;;;;;7.00;7.00;;;;;15.23;61.24;99246.09;5102056;27;47170;-84
2023/04/28 03:27:44;;;;;;;;;6.50;6.50;;;;;15.24;61.97;99237.19;5100758;27;45302;-84
2023/04/28 03:30:10;;;;;;;;;6.00;6.00;;;;;15.21;62.16;99235.56;5078485;27;45269;-84
2023/04/28 03:32:35;;;;;;;;;7.00;7.00;;;;;15.23;61.65;99248.75;5074762;28;45663;-84
2023/04/28 03:35:00;;;;;;;;;7.75;6.50;;;;;15.22;61.99;99247.03;5075787;27;46141;-83
2023/04/28 03:37:26;;;;;;;;;9.25;5.75;;;;;15.25;61.37;99257.44;5088059;27;45382;-84
2023/04/28 03:39:51;;;;;;;;;8.50;6.25;;;;;15.20;61.67;99260.41;5073423;28;45397;-84
2023/04/28 03:42:17;;;;;;;;;6.50;6.50;;;;;15.13;62.17;99260.81;5075388;27;45597;-84
2023/04/28 03:44:42;;;;;;;;;4.25;4.25;;;;;15.07;61.90;99254.06;5073163;28;47025;-84
2023/04/28 03:47:08;;;;;;;;;7.50;5.00;;;;;15.04;62.09;99256.88;5073648;28;45566;-84
2023/04/28 03:49:33;;;;;;;;;6.50;6.25;;;;;14.97;62.11;99261.69;5075957;27;45304;-83
2023/04/28 03:51:58;;;;;;;;;4.25;4.25;;;;;14.96;62.56;99262.63;5075822;27;45401;-83
2023/04/28 03:54:24;;;;;;;;;4.00;4.00;;;;;14.94;61.99;99264.50;5075485;28;45442;-84
2023/04/28 03:56:49;;;;;;;;;6.75;6.00;;;;;14.91;62.20;99271.78;5075684;28;45454;-83
2023/04/28 03:59:15;;;;;;;;;8.00;6.25;;;;;14.89;62.51;99266.56;5072328;27;45419;-84
2023/04/28 04:01:40;;;;;;;;;6.50;6.00;;;;;14.87;62.31;99272.91;5071481;28;45300;-84
2023/04/28 04:04:06;;;;;;;;;7.50;6.50;;;;;14.87;62.20;99279.06;5078337;27;46579;-82
2023/04/28 04:06:32;;;;;;;;;6.00;5.00;;;;;14.88;62.99;99274.63;5075200;28;45402;-84
2023/04/28 04:08:57;;;;;;;;;8.00;6.00;;;;;14.84;63.25;99263.31;5075578;28;45284;-84
2023/04/28 04:11:23;;;;;;;;;6.75;6.00;;;;;14.87;63.39;99272.91;5075055;28;45414;-84
2023/04/28 04:13:48;;;;;;;;;8.25;6.00;;;;;14.88;62.98;99274.63;5074890;27;45248;-84
2023/04/28 04:16:16;;;;;;;;;5.00;5.00;;;;;14.86;62.91;99280.00;5075433;28;45269;-83
2023/04/28 04:18:41;;;;;;;;;5.50;5.50;;;;;14.87;63.57;99287.03;5074541;27;45280;-84
2023/04/28 04:21:07;;;;;;;;;7.00;5.00;;;;;14.88;63.26;99285.22;5074070;28;45308;-83
2023/04/28 04:23:32;;;;;;;;;6.25;5.00;;;;;14.87;63.28;99286.16;5073998;28;45452;-84
2023/04/28 04:25:58;;;;;;;;;5.00;5.00;;;;;14.88;63.56;99275.47;5074849;27;45536;-83
2023/04/28 04:28:23;;;;;;;;;5.75;4.00;;;;;14.89;63.56;99265.72;5075343;27;45627;-84
2023/04/28 04:30:49;;;;;;;;;6.00;6.00;;;;;14.92;63.45;99265.50;5078537;28;45369;-84
2023/04/28 04:33:14;;;;;;;;;7.25;5.50;;;;;14.94;63.25;99269.81;5077026;28;47154;-84
2023/04/28 04:35:40;;;;;;;;;5.00;5.00;;;;;15.01;63.54;99275.63;5078491;27;45426;-84
2023/04/28 04:38:06;;;;;;;;;8.75;6.00;;;;;15.04;63.51;99277.28;5078506;28;45399;-83
2023/04/28 04:40:31;;;;;;;;;5.50;5.00;;;;;15.03;63.60;99268.44;5076979;28;45466;-83
2023/04/28 04:42:57;;;;;;;;;6.75;6.75;;;;;15.05;63.73;99271.88;5078189;27;46587;-84
2023/04/28 04:45:22;;;;;;;;;7.75;7.75;;;;;15.04;64.38;99270.16;5078250;28;45233;-84
2023/04/28 04:47:48;;;;;;;;;7.50;5.75;;;;;15.06;64.68;99273.59;5078194;27;45374;-84
2023/04/28 04:50:13;;;;;;;;;7.00;7.00;;;;;15.07;64.29;99261.19;5078473;27;45491;-84
2023/04/28 04:52:39;;;;;;;;;5.25;5.00;;;;;15.10;64.28;99260.97;5077486;27;46415;-83
2023/04/28 04:55:05;;;;;;;;;8.50;6.50;;;;;15.12;64.27;99267.91;5076537;28;45416;-84
2023/04/28 04:57:30;;;;;;;;;9.25;7.50;;;;;15.15;64.31;99270.41;5076760;27;45384;-84
2023/04/28 04:59:56;;;;;;;;;6.25;5.25;;;;;15.17;64.31;99275.63;5076696;28;45560;-84
2023/04/28 05:02:21;;;;;;;;;5.00;5.00;;;;;15.17;64.44;99273.84;5077553;28;46260;-84
2023/04/28 05:04:47;;;;;;;;;7.00;7.00;;;;;15.21;64.12;99274.53;5077661;27;45353;-84
2023/04/28 05:07:12;;;;;;;;;9.00;7.00;;;;;15.19;64.22;99274.63;5080128;27;45281;-84
2023/04/28 05:09:38;;;;;;;;;8.00;7.75;;;;;15.18;63.97;99262.28;5078159;28;45372;-84
2023/04/28 05:12:03;;;;;;;;;7.50;7.00;;;;;15.22;64.31;99266.47;5076538;28;45516;-84
2023/04/28 05:14:29;;;;;;;;;8.25;7.25;;;;;15.31;63.86;99281.03;5077309;27;45414;-84
2023/04/28 05:16:54;;;;;;;;;6.00;6.00;;;;;15.37;64.18;99286.00;5076929;28;45413;-60
2023/04/28 05:19:20;;;;;;;;;6.00;6.00;;;;;15.45;63.98;99285.53;5076647;27;45351;-61
2023/04/28 05:21:46;;;;;;;;;9.25;8.25;;;;;15.51;63.72;99288.72;5076454;27;45479;-61
2023/04/28 05:24:13;;;;;;;;;7.00;7.00;;;;;15.59;63.92;99283.84;5075914;28;45442;-61
2023/04/28 05:26:38;;;;;;;;;9.00;8.00;;;;;15.65;63.89;99286.16;5076134;28;45446;-61
2023/04/28 05:29:04;;;;;;;;;8.00;8.00;;;;;15.73;63.84;99287.50;5075477;28;45409;-62
2023/04/28 05:31:29;;;;;;;;;8.50;8.50;;;;;15.81;63.66;99282.59;5075793;28;45357;-61
2023/04/28 05:33:55;;;;;;;;;8.50;8.25;;;;;15.89;63.68;99285.66;5075455;28;45317;-61
2023/04/28 05:36:20;;;;;;;;;13.25;9.00;;;;;15.94;63.82;99287.09;5075717;27;45411;-62
2023/04/28 05:38:46;;;;;;;;;10.75;8.25;;;;;16.02;62.92;99295.47;5073943;28;45479;-61
2023/04/28 05:41:11;;;;;;;;;8.25;8.25;;;;;16.07;63.08;99297.88;5074758;27;45373;-61
2023/04/28 05:43:37;;;;;;;;;10.00;9.25;;;;;16.11;62.86;99294.06;5076020;27;45448;-61
2023/04/28 05:46:02;;;;;;;;;9.75;8.00;;;;;16.16;62.40;99293.78;5076033;27;45360;-61
2023/04/28 05:48:28;;;;;;;;;11.50;11.50;;;;;16.19;62.28;99298.94;5074992;27;45506;-61
2023/04/28 05:50:53;;;;;;;;;12.00;9.75;;;;;16.20;62.34;99295.31;5075722;27;45537;-61
2023/04/28 05:53:18;;;;;;;;;5.25;5.00;;;;;16.25;61.95;99294.13;5076247;27;45468;-61
2023/04/28 05:55:44;;;;;;;;;9.25;8.00;;;;;16.28;61.78;99290.38;5075783;27;45436;-61
2023/04/28 05:58:09;;;;;;;;;8.00;8.00;;;;;16.32;61.68;99289.25;5076084;27;45379;-61
2023/04/28 06:00:35;;;;;;;;;11.25;11.00;;;;;16.33;61.89;99297.16;5074882;27;45529;-61
2023/04/28 06:03:00;;;;;;;;;10.00;9.75;;;;;16.32;61.58;99291.91;5075173;27;45419;-61
2023/04/28 06:05:26;;;;;;;;;7.25;6.75;;;;;16.29;61.79;99292.94;5075540;27;45453;-61
2023/04/28 06:07:52;;;;;;;;;8.25;8.25;;;;;16.25;61.81;99286.13;5074792;27;45561;-61
2023/04/28 06:10:18;;;;;;;;;11.75;11.00;;;;;16.21;62.75;99289.91;5075209;27;45419;-61
2023/04/28 06:12:43;;;;;;;;;13.00;11.00;;;;;16.15;62.27;99294.75;5075151;27;45304;-61
2023/04/28 06:15:09;;;;;;;;;17.75;12.50;;;;;16.10;62.86;99294.16;5073911;28;45525;-61
2023/04/28 06:17:34;;;;;;;;;9.50;9.00;;;;;16.07;62.80;99300.53;5075148;28;45327;-61
2023/04/28 06:20:00;;;;;;;;;14.00;11.50;;;;;16.04;62.89;99300.72;5075328;27;45988;-61
2023/04/28 06:22:25;;;;;;;;;9.00;9.00;;;;;16.01;62.94;99295.56;5075227;27;45396;-61
2023/04/28 06:24:51;;;;;;;;;10.50;8.25;;;;;16.00;63.23;99292.06;5075380;27;45310;-61
2023/04/28 06:27:16;;;;;;;;;15.00;13.00;;;;;15.98;63.57;99287.75;5075313;28;45329;-61
2023/04/28 06:29:42;;;;;;;;;10.50;10.00;;;;;15.94;63.69;99291.53;5074027;27;45689;-61
2023/04/28 06:32:07;;;;;;;;;11.75;10.25;;;;;15.92;64.30;99288.16;5074327;27;45423;-61
2023/04/28 06:34:33;;;;;;;;;8.00;8.00;;;;;15.88;64.88;99297.25;5074776;27;46115;-61
2023/04/28 06:36:59;;;;;;;;;11.00;10.25;;;;;15.80;65.48;99295.03;5074504;27;45412;-61
2023/04/28 06:39:24;;;;;;;;;9.00;9.00;;;;;15.75;64.51;99299.78;5075243;27;46360;-61
2023/04/28 06:41:49;;;;;;;;;11.00;10.00;;;;;15.70;64.27;99304.50;5075390;27;45431;-61
2023/04/28 06:44:15;;;;;;;;;11.50;8.50;;;;;15.65;65.22;99298.56;5074988;27;45725;-61
2023/04/28 06:46:40;;;;;;;;;10.50;10.50;;;;;15.60;65.45;99300.63;5074393;28;45471;-61
2023/04/28 06:49:06;;;;;;;;;7.00;7.00;;;;;15.61;65.50;99312.97;5073467;27;46330;-61
2023/04/28 06:51:32;;;;;;;;;9.50;8.50;;;;;15.62;66.14;99309.38;5072979;28;45691;-64
2023/04/28 06:53:58;;;;;;;;;10.50;10.50;;;;;15.62;64.79;99304.91;5074613;27;45357;-61
2023/04/28 06:56:23;;;;;;;;;11.75;10.00;;;;;15.62;64.95;99304.06;5074614;27;45658;-61
2023/04/28 06:58:49;;;;;;;;;8.75;8.00;;;;;15.64;64.70;99311.00;5074155;28;45519;-61
2023/04/28 07:01:15;;;;;;;;;7.00;7.00;;;;;15.67;64.87;99305.53;5075013;27;45358;-62
2023/04/28 07:03:41;;;;;;;;;8.75;8.00;;;;;15.75;65.43;99314.88;5074298;27;45393;-61
2023/04/28 07:06:06;;;;;;;;;7.50;7.50;;;;;15.81;65.01;99303.84;5073102;28;45399;-61
2023/04/28 07:08:33;;;;;;;;;10.00;9.00;;;;;15.86;64.67;99315.09;5074062;28;46491;-61
2023/04/28 07:10:58;;;;;;;;;9.50;8.75;;;;;15.93;64.48;99305.78;5074822;27;45507;-61
2023/04/28 07:13:24;;;;;;;;;8.50;7.50;;;;;16.00;64.40;99305.34;5074561;27;45714;-60
2023/04/28 07:15:49;;;;;;;;;9.25;8.00;;;;;16.09;64.57;99313.75;5072858;28;45383;-61
2023/04/28 07:18:15;;;;;;;;;8.50;6.00;;;;;16.14;63.42;99303.66;5073561;27;45525;-61
2023/04/28 07:20:40;;;;;;;;;9.50;8.50;;;;;16.20;63.33;99308.63;5073725;27;45403;-61
2023/04/28 07:23:06;;;;;;;;;10.50;7.50;;;;;16.24;63.45;99304.84;5074302;27;45815;-61
2023/04/28 07:25:31;;;;;;;;;4.75;4.75;;;;;16.28;63.38;99307.19;5074629;28;45419;-61
2023/04/28 07:27:56;;;;;;;;;7.25;7.00;;;;;16.30;62.62;99305.31;5074029;27;45480;-61
2023/04/28 07:30:22;;;;;;;;;6.75;6.75;;;;;16.35;62.16;99310.34;5074191;27;45500;-61
2023/04/28 07:32:47;;;;;;;;;8.00;6.50;;;;;16.38;62.66;99308.38;5073931;27;45542;-61
2023/04/28 07:35:13;;;;;;;;;10.50;7.50;;;;;16.43;62.75;99297.44;5073879;27;45466;-62
2023/04/28 07:37:38;;;;;;;;;10.75;8.25;;;;;16.50;61.87;99305.91;5074176;27;46333;-62
2023/04/28 07:40:05;;;;;;;;;10.00;10.00;;;;;16.55;62.18;99307.34;5073758;27;45392;-61
2023/04/28 07:42:31;;;;;;;;;3.25;3.00;;;;;16.63;61.57;99306.88;5074260;28;45450;-61
2023/04/28 07:44:57;;;;;;;;;5.00;4.75;;;;;16.73;61.20;99294.75;5074003;27;45356;-61
2023/04/28 07:47:23;;;;;;;;;9.75;7.50;;;;;16.83;60.87;99301.19;5073424;27;46331;-62
2023/04/28 07:49:49;;;;;;;;;6.75;6.00;;;;;16.96;60.52;99295.94;5074063;27;45496;-62
2023/04/28 07:52:15;;;;;;;;;6.00;5.50;;;;;17.04;60.44;99286.50;5074057;27;45416;-61
2023/04/28 07:54:40;;;;;;;;;8.50;7.00;;;;;17.14;60.21;99285.91;5073873;27;45414;-61
2023/04/28 07:57:06;;;;;;;;;7.00;6.75;;;;;17.22;60.10;99295.13;5074373;27;45613;-61
2023/04/28 07:59:34;;;;;;;;;6.25;6.25;;;;;17.28;59.77;99300.06;5073471;28;45446;-61
2023/04/28 08:01:59;;;;;;;;;6.25;5.00;;;;;17.32;59.30;99311.38;5073291;27;45371;-61
2023/04/28 08:04:25;;;;;;;;;7.75;6.75;;;;;17.34;59.54;99293.47;5072661;27;45520;-62
2023/04/28 08:06:50;;;;;;;;;8.00;6.00;;;;;17.39;59.14;99288.72;5073007;27;46748;-61
2023/04/28 08:09:16;;;;;;;;;7.00;6.00;;;;;17.44;59.06;99283.91;5073956;27;45381;-61
2023/04/28 08:11:41;;;;;;;;;7.00;5.50;;;;;17.48;58.94;99280.09;5073710;27;45302;-61
2023/04/28 08:14:07;;;;;;;;;6.50;6.50;;;;;17.52;58.57;99280.75;5074008;27;45300;-61
2023/04/28 08:16:35;;;;;;;;;4.00;3.00;;;;;17.58;58.24;99283.91;5072826;28;46053;-61
2023/04/28 08:19:01;;;;;;;;;7.40;6.20;;;;;17.68;57.98;99282.34;5089377;27;45493;-61
2023/04/28 08:21:26;;;;;;;;;3.50;3.25;;;;;17.77;58.09;99283.53;5073513;27;45383;-63
2023/04/28 08:23:52;;;;;;;;;4.50;4.50;;;;;17.89;57.95;99273.88;5073310;27;45590;-61
2023/04/28 08:26:17;;;;;;;;;6.50;4.50;;;;;18.02;58.06;99280.06;5073534;27;45374;-61
2023/04/28 08:28:43;;;;;;;;;5.25;5.00;;;;;18.14;57.38;99284.56;5073032;28;45380;-61
2023/04/28 08:31:08;;;;;;;;;6.75;4.50;;;;;18.25;56.51;99289.19;5072674;27;45452;-61
2023/04/28 08:33:33;;;;;;;;;5.00;5.00;;;;;18.36;56.59;99295.50;5072899;27;45439;-61
2023/04/28 08:35:59;;;;;;;;;5.25;5.00;;;;;18.46;56.19;99290.34;5072671;27;45575;-61
2023/04/28 08:38:25;;;;;;;;;5.00;5.00;;;;;18.57;55.77;99285.13;5072957;27;45505;-61
2023/04/28 08:40:51;;;;;;;;;6.60;5.40;;;;;18.69;55.49;99284.28;5073061;27;45566;-61
2023/04/28 08:43:16;;;;;;;;;5.00;5.00;;;;;18.79;55.25;99277.31;5072531;28;45395;-61
2023/04/28 08:45:44;;;;;;;;;8.50;5.50;;;;;18.92;55.30;99282.66;5072070;27;45682;-61
2023/04/28 08:48:21;;;;;;;;;3.60;3.60;;;;;19.07;55.00;99289.59;5070280;28;45403;-61
2023/04/28 08:50:51;;;;;;;;;5.40;5.40;;;;;19.16;53.69;99283.56;5072295;27;45513;-61
2023/04/28 08:53:26;;;;;;;;;4.00;4.00;;;;;19.25;54.41;99278.53;5070391;27;45389;-61
2023/04/28 08:55:55;;;;;;;;;4.80;4.80;;;;;19.30;53.97;99262.97;5072605;27;45409;-61
2023/04/28 08:58:25;;;;;;;;;6.00;5.00;;;;;19.37;53.48;99265.09;5072579;28;45459;-61
2023/04/28 09:00:51;;;;;;;;;8.00;6.20;;;;;19.43;53.33;99280.69;5072543;27;45446;-61
2023/04/28 09:03:17;;;;;;;;;4.25;4.00;;;;;19.49;53.22;99282.94;5072659;27;45350;-61
2023/04/28 09:05:43;;;;;;;;;6.25;4.00;;;;;19.58;53.20;99278.75;5072371;27;45356;-61
2023/04/28 09:08:10;;;;;;;;;7.00;5.00;;;;;19.68;52.41;99279.75;5071957;27;45456;-61
2023/04/28 09:10:36;;;;;;;;;5.20;3.60;;;;;19.77;52.31;99278.22;5072728;27;45407;-61
2023/04/28 09:13:02;;;;;;;;;3.60;3.00;;;;;19.89;52.45;99279.09;5071078;28;45561;-62
2023/04/28 09:15:36;;;;;;;;;5.50;4.50;;;;;19.97;52.11;99287.38;5071869;28;45571;-61
2023/04/28 09:18:05;;;;;;;;;3.00;3.00;;;;;20.07;52.01;99270.53;5075678;27;45509;-61
2023/04/28 09:20:33;;;;;;;;;2.20;2.20;;;;;20.15;51.27;99284.16;5075896;27;45384;-61
2023/04/28 09:23:16;;;;;;;;;4.00;3.00;;;;;20.25;51.76;99264.72;5075571;28;45377;-61
2023/04/28 09:26:11;;;;;;;;;4.00;4.00;;;;;20.39;51.55;99262.72;5075716;27;46229;-61
2023/04/28 09:28:36;;;;;;;;;3.40;3.40;;;;;20.51;50.72;99271.59;5066308;27;45365;-61
2023/04/28 09:31:02;;;;;;;;;4.25;4.00;;;;;20.63;50.15;99253.69;5075639;27;46062;-61
2023/04/28 09:33:28;;;;;;;;;3.40;3.40;;;;;20.76;50.91;99246.41;5074833;28;45306;-61
2023/04/28 09:35:54;;;;;;;;;3.00;3.00;;;;;20.87;49.09;99239.22;5074985;27;45476;-61
2023/04/28 09:38:21;;;;;;;;;2.00;2.00;;;;;20.97;49.33;99247.34;5075354;27;45790;-60
2023/04/28 09:40:52;;;;;;;;;3.60;3.60;;;;;21.09;48.87;99246.38;5075603;27;45413;-60
2023/04/28 09:43:25;;;;;;;;;1.60;1.60;;;;;21.17;48.94;99237.69;5075708;27;45550;-60
2023/04/28 09:45:50;;;;;;;;;5.00;3.40;;;;;21.21;48.88;99234.69;5075463;27;45347;-60
2023/04/28 09:48:17;;;;;;;;;3.00;3.00;;;;;21.29;49.79;99228.66;5074536;27;45351;-60
2023/04/28 09:50:43;;;;;;;;;0.00;0.00;;;;;21.36;49.60;99223.66;5074711;27;45460;-61
2023/04/28 09:53:11;;;;;;;;;3.25;3.25;;;;;21.40;48.95;99220.59;5075419;27;45476;-60
2023/04/28 09:55:42;;;;;;;;;3.20;3.00;;;;;21.41;49.57;99213.41;5074587;28;45570;-61
2023/04/28 09:58:10;;;;;;;;;2.60;2.00;;;;;21.41;49.44;99208.06;5066456;27;45896;-61
2023/04/28 10:00:39;;;;;;;;;2.60;2.60;;;;;21.36;49.23;99213.78;5070852;28;45598;-61
2023/04/28 10:03:06;;;;;;;;;2.80;2.80;;;;;21.30;49.40;99202.69;5067505;27;45399;-61
2023/04/28 10:05:33;;;;;;;;;2.40;2.40;;;;;21.28;48.88;99207.38;5070503;27;45536;-60
2023/04/28 10:08:01;;;;;;;;;5.80;3.00;;;;;21.31;49.44;99225.88;5073313;28;45584;-61
2023/04/28 10:10:27;;;;;;;;;4.40;4.40;;;;;21.33;49.36;99211.34;5074368;27;45343;-61
2023/04/28 10:12:53;;;;;;;;;3.20;3.20;;;;;21.36;49.17;99219.16;5066266;27;45415;-61
2023/04/28 10:15:19;;;;;;;;;5.40;4.80;;;;;21.37;49.29;99215.50;5060329;27;45536;-61
2023/04/28 10:17:47;;;;;;;;;3.50;3.00;;;;;21.43;49.03;99214.13;5066288;27;45458;-61
2023/04/28 10:20:14;;;;;;;;;3.80;3.00;;;;;21.49;48.91;99213.59;5062078;28;45436;-60
2023/04/28 10:22:46;;;;;;;;;0.60;0.40;;;;;21.55;48.90;99223.84;5068395;27;45514;-61
2023/04/28 10:25:21;;;;;;;;;4.00;4.00;;;;;21.62;48.26;99225.00;5073773;27;46142;-61
2023/04/28 10:27:48;;;;;;;;;4.60;3.00;;;;;21.70;48.13;99213.66;5074671;27;45545;-61
2023/04/28 10:30:19;;;;;;;;;3.80;3.80;;;;;21.75;48.37;99216.81;5061245;28;45467;-61
2023/04/28 10:32:45;;;;;;;;;3.00;3.00;;;;;21.85;48.69;99207.84;5073908;27;45487;-61
2023/04/28 10:35:29;;;;;;;;;3.75;2.75;;;;;21.90;48.53;99202.94;5074345;28;45723;-61
2023/04/28 10:38:12;;;;;;;;;4.80;4.00;;;;;21.94;48.24;99209.75;5073134;28;45398;-61
2023/04/28 10:40:40;;;;;;;;;5.40;5.40;;;;;21.94;48.13;99214.25;5074877;27;45411;-61
2023/04/28 10:43:10;;;;;;;;;3.00;2.80;;;;;21.87;48.27;99199.66;5074731;27;45504;-61
2023/04/28 10:45:54;;;;;;;;;3.80;3.60;;;;;21.78;48.75;99187.03;5073766;27;45458;-61
2023/04/28 10:48:21;;;;;;;;;4.40;4.40;;;;;21.74;48.92;99190.94;5074622;27;45442;-61
2023/04/28 10:51:05;;;;;;;;;4.20;3.60;;;;;21.74;49.21;99164.97;5074593;27;45446;-61
2023/04/28 10:53:47;;;;;;;;;3.00;3.00;;;;;21.84;49.02;99163.19;5074295;27;45448;-61
2023/04/28 10:56:15;;;;;;;;;3.60;3.60;;;;;21.95;48.66;99186.44;5073659;28;45402;-62
2023/04/28 10:58:42;;;;;;;;;4.00;4.00;;;;;22.05;48.74;99165.03;5067719;28;45583;-61
2023/04/28 11:01:20;;;;;;;;;4.00;4.00;;;;;22.22;48.36;99183.22;5074039;27;45603;-61
2023/04/28 11:03:48;;;;;;;;;6.40;3.20;;;;;22.33;48.06;99174.22;5074664;27;45529;-61
2023/04/28 11:06:40;;;;;;;;;4.00;4.00;;;;;22.46;48.12;99153.34;5073637;27;46166;-62
2023/04/28 11:09:11;;;;;;;;;3.20;3.20;;;;;22.59;48.04;99154.81;5074425;27;45331;-61
2023/04/28 11:11:38;;;;;;;;;6.00;4.00;;;;;22.71;47.44;99158.25;5074066;28;45537;-61
2023/04/28 11:14:19;;;;;;;;;5.00;3.80;;;;;22.81;46.88;99163.66;5073207;28;45487;-61
2023/04/28 11:16:53;;;;;;;;;5.60;5.60;;;;;22.83;47.32;99143.72;5072758;27;45488;-61
2023/04/28 11:19:21;;;;;;;;;6.80;4.00;;;;;22.90;46.98;99155.66;5072506;27;45464;-61
2023/04/28 11:21:48;;;;;;;;;4.80;3.80;;;;;22.94;46.86;99146.31;5072460;28;45466;-61
2023/04/28 11:24:13;;;;;;;;;6.00;5.00;;;;;23.02;47.16;99139.38;5073998;27;45419;-61
2023/04/28 11:26:40;;;;;;;;;4.25;4.25;;;;;23.07;46.67;99121.84;5073222;27;45426;-61
2023/04/28 11:29:06;;;;;;;;;2.00;2.00;;;;;23.14;46.94;99130.19;5073782;27;45347;-61